Statewide Weather Sensors

Route Weather Station Name Milepost Date / Time Surface Status Surface Temp Precip Intensity Wind Avg Wind Gust Dir Dewpoint Humidity Air Temp Visibility
I 25 Wyo Hill 3.52 Jul 18, 2024, 10:14 AM     None None 8 mph 11 mph SW 50.0°F 43% 75.2°F > 1/2 mi
I 25 Whitaker 28.1 Jul 18, 2024, 10:14 AM N/A   None None 0 mph 6 mph SE 50.0°F 38% 77.0°F > 1/2 mi
I 25 Bear Creek 46.77 Jul 18, 2024, 10:14 AM Dry 104.4°F None None 1 mph 11 mph NE 48.2°F 36% 78.8°F > 1/2 mi
I 25 Bordeaux 70.8 Jul 18, 2024, 10:14 AM Dry 104.7°F None None 6 mph 9 mph SE 48.2°F 35% 77.0°F > 1/2 mi
I 25 Coleman 98.7 Jul 18, 2024, 10:14 AM Dry 96.8°F None None 6 mph 11 mph SE 51.8°F 44% 75.2°F > 1/2 mi
I 25 Platte/Converse County Line 119.9 Jul 18, 2024, 10:14 AM Dry 88.0°F None None 4 mph 8 mph S 48.2°F 36% 77.0°F > 1/2 mi
I 25 Deer Creek 164.2 Jul 18, 2024, 10:14 AM Dry 99.0°F None None 4 mph 6 mph N 46.4°F 32% 78.8°F > 1/2 mi
I 25 Hat Six 181.67 Jul 18, 2024, 10:14 AM Dry 90.5°F None None 2 mph 6 mph N 50.0°F 38% 77.0°F > 1/2 mi
I 25 F Street Hill 189.51 Jul 18, 2024, 10:14 AM Dry 87.1°F None None 9 mph 11 mph SE 48.2°F 38% 75.2°F > 1/2 mi
I 25 Twenty Mile Hill 207.2 Jul 18, 2024, 10:14 AM Dry 84.6°F None None 13 mph 16 mph S 48.2°F 42% 73.4°F > 1/2 mi
I 25 Smokey Gap 228.58 Jul 18, 2024, 10:14 AM Dry 86.4°F None None 8 mph 14 mph SE 50.0°F 38% 77.0°F > 1/2 mi
I 25 Tisdale 238.87 Feb 21, 2024, 11:42 PM                      
I 25 I-25 Divide 267.3 Jul 18, 2024, 10:14 AM Dry 93.9°F None 5 mph 11 mph N 44.6°F 23% 86.0°F > 1/2 mi
I 80 Evanston POE 0.06 Jul 18, 2024, 10:14 AM Dry 80.2°F None None 2 mph 7 mph W 42.8°F 31% 75.2°F > 1/2 mi
I 80 Evanston 4.2 Jul 18, 2024, 10:14 AM N/A   None None 6 mph 8 mph W 48.2°F 42% 71.6°F > 1/2 mi
I 80 Bear River Drive 6.94 Jul 18, 2024, 10:14 AM Dry 84.2°F None None 7 mph 11 mph NW 42.8°F 31% 75.2°F > 1/2 mi
I 80 Painter 10.16 Jul 18, 2024, 10:14 AM Dry 96.8°F None None 5 mph 7 mph S 42.8°F 28% 77.0°F < 1/4 mi
I 80 First Divide 13.86 Jul 18, 2024, 10:14 AM Dry 99.5°F None None 6 mph 9 mph NW 39.2°F 27% 73.4°F > 1/2 mi
I 80 US 189 Interchange 17.66 Jul 18, 2024, 10:14 AM Dry 96.8°F None None 6 mph 10 mph SW 41.0°F 27% 77.0°F > 1/2 mi
I 80 Coal Road 20.95 Jul 18, 2024, 10:14 AM Dry 93.7°F None None 6 mph 12 mph E 41.0°F 27% 77.0°F > 1/2 mi
I 80 Leroy 23.35 Jul 18, 2024, 10:14 AM Dry 66.9°F None None 12 mph 25 mph NW 41.0°F 26% 78.8°F > 1/2 mi
I 80 French 27.6 Jul 18, 2024, 10:14 AM Dry 95.0°F None None 3 mph 6 mph W 39.2°F 27% 75.2°F > 1/2 mi
I 80 Church Butte 52.65 Jul 18, 2024, 10:14 AM Dry 101.5°F None None 5 mph 9 mph SW 41.0°F 31% 73.4°F > 1/2 mi
I 80 Peru Hill 82.31 Jul 18, 2024, 10:14 AM Dry 103.1°F None None 4 mph 9 mph S 41.0°F 28% 77.0°F > 1/2 mi
I 80 Green River Tunnel 90.5 Jul 18, 2024, 10:14 AM Dry 97.7°F None None 3 mph 6 mph S 41.0°F 26% 77.0°F > 1/2 mi
I 80 Rock Springs West 97.9 Jul 18, 2024, 10:14 AM N/A   None None 2 mph 6 mph N 39.2°F 26% 77.0°F > 1/2 mi
I 80 Baxter Road 111.5 Jul 18, 2024, 10:14 AM Dry 88.2°F None None 6 mph 5 mph E -4.0°F 27% 24.8°F > 1/2 mi
I 80 Mile Marker 124.5 124.5 Jul 18, 2024, 10:14 AM Dry 100.8°F None None 3 mph 6 mph S 41.0°F 29% 75.2°F > 1/2 mi
I 80 Point of Rocks 129.8 Jul 18, 2024, 10:14 AM Dry 99.9°F None None 3 mph 6 mph S 42.8°F 32% 75.2°F > 1/2 mi
I 80 Black Butte 134.91 Jul 18, 2024, 10:14 AM Dry 83.5°F None None 3 mph 7 mph NE 46.4°F 38% 73.4°F > 1/2 mi
I 80 Bitter Creek 141.83 Jul 18, 2024, 10:14 AM Dry 83.7°F None None 1 mph 6 mph W 42.8°F 36% 69.8°F > 1/2 mi
I 80 Tipton 156.72 Jul 18, 2024, 10:14 AM Wet 84.2°F None None 0 mph 0 mph W 44.6°F 40% 69.8°F > 1/2 mi
I 80 Continental Divide 184.3 Jul 18, 2024, 10:14 AM Dry 95.4°F None None 7 mph 11 mph SW 41.0°F 30% 75.2°F > 1/2 mi
I 80 Sinclair 221.7 Jul 18, 2024, 10:14 AM N/A 88.3°F None None 4 mph 9 mph NW 41.0°F 28% 77.0°F > 1/2 mi
I 80 Walcott Junction 234.66 Jul 18, 2024, 10:14 AM Dry 100.6°F None None 4 mph 7 mph S 42.8°F 32% 73.4°F > 1/2 mi
I 80 Dana Ridge 244.8 Jul 18, 2024, 10:14 AM Trace Moisture 100.4°F None None 5 mph 9 mph SW 41.0°F 31% 73.4°F > 1/2 mi
I 80 Mile Marker 249.1 249.1 Jul 18, 2024, 10:14 AM Dry 104.0°F None None 2 mph 5 mph NE 44.6°F 37% 73.4°F > 1/2 mi
I 80 Halleck Ridge 252.16 Jul 18, 2024, 10:14 AM Dry 90.9°F None None 7 mph 13 mph NW 44.6°F 39% 69.8°F > 1/2 mi
I 80 Elk Mountain 256.17 Jul 18, 2024, 10:14 AM Dry 88.0°F None None 4 mph 9 mph SW 42.8°F 31% 75.2°F > 1/2 mi
I 80 County Road 402 262 Jul 18, 2024, 10:14 AM N/A   None None 4 mph 7 mph N 44.6°F 36% 73.4°F > 1/2 mi
I 80 Wagonhound 266.58 Jul 18, 2024, 10:14 AM Dry 96.6°F None None 5 mph 9 mph N 42.8°F 34% 73.4°F > 1/2 mi
I 80 Foote Creek 269.5 Jul 18, 2024, 10:14 AM Dry 88.3°F None None 6 mph 10 mph N 42.8°F 34% 71.6°F > 1/2 mi
I 80 Arlington 271.8 Jul 18, 2024, 10:14 AM Dry 83.8°F None None 4 mph 10 mph E 44.6°F 38% 71.6°F > 1/2 mi
I 80 Arlington East 273.85 Jul 18, 2024, 10:14 AM Dry 91.2°F None None 4 mph 7 mph N 48.2°F 43% 71.6°F > 1/2 mi
I 80 Cooper Cove 279.36 Jul 18, 2024, 10:14 AM Dry 86.4°F None None 6 mph 11 mph W 44.6°F 38% 71.6°F > 1/2 mi
I 80 Strouss Hill 283.75 Jul 18, 2024, 10:14 AM N/A   None None 9 mph 13 mph NW 42.8°F 37% 71.6°F > 1/2 mi
I 80 Quealy Dome 289.5 Jul 18, 2024, 10:14 AM Dry 94.3°F None None 5 mph 11 mph NW 42.8°F 36% 71.6°F > 1/2 mi
I 80 Herrick Lane 297.66 Jul 18, 2024, 10:14 AM Dry 87.6°F None None 2 mph 7 mph NE 48.2°F 44% 69.8°F > 1/2 mi
I 80 Summit East 325.8 Jul 18, 2024, 10:14 AM Dry 89.2°F None None 6 mph 10 mph NW 35.6°F 29% 69.8°F > 1/2 mi
I 80 Vedauwoo 329.4 Jul 18, 2024, 10:14 AM Dry 90.3°F None None 5 mph 12 mph W 41.0°F 34% 69.8°F > 1/2 mi
I 80 Lone Tree 333.32 Jul 18, 2024, 10:14 AM Dry 91.4°F None None 8 mph 11 mph NE 44.6°F 37% 71.6°F > 1/2 mi
I 80 Buford East 336.1 Jul 18, 2024, 10:14 AM Dry 96.3°F None None 6 mph 9 mph N 44.6°F 36% 71.6°F > 1/2 mi
I 80 Remount Road 340.5 Jul 18, 2024, 10:14 AM Dry 93.9°F None None 5 mph 11 mph N 46.4°F 36% 75.2°F > 1/2 mi
I 80 Otto 347.69 Jul 18, 2024, 10:14 AM Dry 89.2°F None None 1 mph 6 mph E 44.6°F 36% 73.4°F > 1/2 mi
I 80 MP 353 353 Jul 18, 2024, 10:14 AM Dry 98.6°F None None 1 mph 7 mph NE 48.2°F 37% 75.2°F > 1/2 mi
I 80 Cheyenne East 373 Jul 18, 2024, 10:14 AM Dry 80.8°F None None NaN mph NaN mph N 53.6°F 50% 75.2°F > 1/2 mi
I 90 Montana State Line 0.1 Jul 18, 2024, 10:14 AM Trace Moisture 105.8°F None None 2 mph 5 mph W 51.8°F 40% 77.0°F > 1/2 mi
I 90 Pompey Creek 35.3 Jul 18, 2024, 10:14 AM Dry 98.1°F None None 4 mph 7 mph W 37.4°F 20% 82.4°F > 1/2 mi
I 90 Sheridan/Johnson County Line 41.33 Jan 29, 2023, 07:04 PM                      
I 90 Piney Creek Interchange 44.7 Jul 18, 2024, 10:14 AM Dry 93.4°F None 2 mph 6 mph E 44.6°F 27% 80.6°F  
I 90 Kearny Divide 45.33 Aug 25, 2023, 12:02 PM                      
I 90 Indian Creek Road 83.3 Jul 18, 2024, 10:14 AM Dry 106.7°F None None 2 mph 5 mph W 44.6°F 26% 82.4°F > 1/2 mi
I 90 Dead Horse 91.5 Jul 18, 2024, 10:14 AM Dry 57.7°F None None 12 mph 19 mph SW 39.2°F 18% 86.0°F > 1/2 mi
I 90 Mile Marker 108 108 Jul 18, 2024, 10:14 AM Dry 107.6°F None None 8 mph 12 mph SW 48.2°F 31% 80.6°F > 1/2 mi
I 90 Inyan Kara 170.5 Jul 18, 2024, 10:14 AM Dry 101.8°F None 8 mph 11 mph SE 53.6°F 37% 82.4°F  
I 90 Beulah 205.9 Jul 18, 2024, 10:14 AM Trace Moisture 97.3°F None None 7 mph 11 mph E 51.8°F 35% 82.4°F > 1/2 mi
US 14 Ucross 27.83 Dec 12, 2023, 09:38 AM                      
US 14 Granite Pass 38.95 Jul 18, 2024, 10:14 AM N/A   None 11 mph 14 mph NE 37.4°F 35% 64.4°F < 1/4 mi
US 14 Sunny Divide 185.89 Jul 18, 2024, 10:14 AM Dry 93.4°F None None 7 mph 11 mph S 50.0°F 37% 78.8°F > 1/2 mi
US 16 Big Horn County Line 44.01 Jul 18, 2024, 10:14 AM Dry 81.3°F None None NaN mph NaN mph N 44.6°F 39% 69.8°F > 1/2 mi
US 191 Farson 40.45 Jul 18, 2024, 10:14 AM Wet 43.3°F None 1 mph 1 mph NW 42.8°F 34% 73.4°F  
US 191 Warren Bridge 119.9 Jul 18, 2024, 10:14 AM N/A   None None 2 mph 7 mph NE 39.2°F 33% 69.8°F > 1/2 mi
US 20 Natrona 30 Jul 18, 2024, 10:14 AM N/A   None None 2 mph 10 mph W 44.6°F 28% 80.6°F > 1/2 mi
US 20 Hiland 57.4 Jul 18, 2024, 10:14 AM Dry 95.4°F None None 9 mph 15 mph W 44.6°F 28% 80.6°F > 1/2 mi
US 20 Van Tassell 57.85 Jul 18, 2024, 10:14 AM Dry 94.8°F None None 6 mph 11 mph S 53.6°F 42% 77.0°F > 1/2 mi
US 26 Wind River Lake 26.05 Jul 18, 2024, 10:14 AM Wet 73.4°F None None 6 mph 11 mph NE 37.4°F 36% 64.4°F > 1/2 mi
US 287 Pumpkin Vine 420.4 Jul 18, 2024, 10:14 AM Dry 101.1°F None None 9 mph 12 mph N 44.6°F 36% 71.6°F > 1/2 mi
US 30 Sage Junction 34 Jul 18, 2024, 10:14 AM Dry 87.8°F None None 4 mph 7 mph W 46.4°F 39% 73.4°F > 1/2 mi
US 30 Nugget Canyon 39.7 Jul 18, 2024, 10:14 AM Dry 91.0°F None None 6 mph 10 mph N 42.8°F 32% 73.4°F > 1/2 mi
US 85 Gun Barrel 46.8 Jul 18, 2024, 10:14 AM Dry 93.7°F None None 9 mph 14 mph SE 51.8°F 43% 77.0°F > 1/2 mi
US 85 Four Corners 247.2 Jul 18, 2024, 10:14 AM N/A   None None 6 mph 9 mph S 48.2°F 38% 75.2°F > 1/2 mi
WY 120 Meeteetse 61.5 Jul 18, 2024, 10:14 AM Dry   None 2 mph 5 mph SE 17.6°F 9% 78.8°F > 1/2 mi
WY 210 Wildcat Trail 21.52 Jul 18, 2024, 10:14 AM Dry 104.9°F None None 4 mph 7 mph SE 42.8°F 33% 73.4°F > 1/2 mi
WY 210 Hynds Lodge Road 24.55 Jul 18, 2024, 10:14 AM N/A   None None 4 mph 11 mph N 42.8°F 34% 73.4°F > 1/2 mi
WY 22 Teton Pass 11.2 Jul 18, 2024, 10:14 AM Dry 93.7°F None None 5 mph 8 mph NE 50.0°F 58% 64.4°F > 1/2 mi
WY 220 Pathfinder Hill 80.1 Jul 18, 2024, 10:14 AM Dry 93.2°F None 5 mph 11 mph SW 46.4°F 37% 73.4°F  
WY 230 Skyline 230 113.2 Jul 18, 2024, 10:14 AM N/A   None None 9 mph 13 mph S 44.6°F 41% 69.8°F > 1/2 mi
WY 258 Outer Drive 13.77 Jul 18, 2024, 10:14 AM Dry 100.0°F None None 4 mph 9 mph NE 44.6°F 33% 77.0°F > 1/2 mi
WY 28 New South Pass 41.4 Jul 18, 2024, 10:14 AM N/A   None NaN mph NaN mph N   NaN%    
WY 28 Lower Red Canyon 59.71 Jul 18, 2024, 10:14 AM Dry 91.2°F None None 2 mph 6 mph NE 44.6°F 37% 73.4°F > 1/2 mi
WY 296 Chief Joseph 32.96 Jul 18, 2024, 10:14 AM N/A   None None 8 mph 11 mph NW 42.8°F 41% 68.0°F > 1/2 mi
WY 372 Shute Creek 34 Jul 18, 2024, 10:14 AM N/A   None None 2 mph 6 mph N   NaN%   > 1/2 mi
WY 387 Pine Tree Junction 131.79 Jul 18, 2024, 10:14 AM Trace Moisture 95.4°F None None 8 mph 13 mph S 51.8°F 41% 77.0°F > 1/2 mi
WY 487 Shirley Rim 37 Jul 18, 2024, 10:14 AM Dry 99.5°F None None 6 mph 9 mph SW 44.6°F 35% 73.4°F > 1/2 mi
WY 59 Belle Fourche 87 Jul 18, 2024, 10:14 AM Dry 106.2°F None 12 mph 17 mph S 51.8°F 33% 82.4°F  
WY 789 Beaver Rim 48.1 Jul 18, 2024, 10:14 AM     None None 2 mph 7 mph SE 15.8°F 9% 77.0°F > 1/2 mi